createdAt,value
2018-08-23T00:00:30.863Z,1008.85
2018-08-23T00:01:30.860Z,1008.85
2018-08-23T00:02:30.861Z,1008.86
2018-08-23T00:03:30.871Z,1008.84
2018-08-23T00:04:30.855Z,1008.82
2018-08-23T00:05:30.865Z,1008.82
2018-08-23T00:06:30.855Z,1008.78
2018-08-23T00:07:30.850Z,1008.78
2018-08-23T00:08:30.859Z,1008.77
2018-08-23T00:09:30.859Z,1008.74
2018-08-23T00:10:30.857Z,1008.75
2018-08-23T00:11:30.845Z,1008.76
2018-08-23T00:12:30.879Z,1008.74
2018-08-23T00:13:30.847Z,1008.72
2018-08-23T00:14:30.856Z,1008.73
2018-08-23T00:15:30.847Z,1008.71
2018-08-23T00:16:30.838Z,1008.71
2018-08-23T00:17:30.842Z,1008.71
2018-08-23T00:18:30.842Z,1008.70
2018-08-23T00:19:30.841Z,1008.67
2018-08-23T00:20:30.832Z,1008.70
2018-08-23T00:21:30.836Z,1008.72
2018-08-23T00:22:30.836Z,1008.74
2018-08-23T00:23:30.830Z,1008.73
2018-08-23T00:24:30.832Z,1008.70
2018-08-23T00:25:30.836Z,1008.74
2018-08-23T00:26:30.826Z,1008.68
2018-08-23T00:27:30.828Z,1008.66
2018-08-23T00:28:30.828Z,1008.65
2018-08-23T00:29:30.822Z,1008.68
2018-08-23T00:30:30.820Z,1008.65
2018-08-23T00:31:30.832Z,1008.65
2018-08-23T00:32:30.813Z,1008.64
2018-08-23T00:33:30.817Z,1008.59
2018-08-23T00:34:30.819Z,1008.62
2018-08-23T00:35:30.815Z,1008.59
2018-08-23T00:36:30.814Z,1008.57
2018-08-23T00:37:30.816Z,1008.59
2018-08-23T00:38:30.807Z,1008.58
2018-08-23T00:39:30.810Z,1008.56
2018-08-23T00:40:30.805Z,1008.52
2018-08-23T00:41:30.803Z,1008.54
2018-08-23T00:42:30.799Z,1008.54
2018-08-23T00:43:30.804Z,1008.55
2018-08-23T00:44:30.797Z,1008.53
2018-08-23T00:45:30.801Z,1008.53
2018-08-23T00:46:30.797Z,1008.51
2018-08-23T00:47:30.792Z,1008.53
2018-08-23T00:48:30.799Z,1008.50
2018-08-23T00:49:30.789Z,1008.49
2018-08-23T00:50:30.788Z,1008.46
2018-08-23T00:51:30.786Z,1008.48
2018-08-23T00:52:30.790Z,1008.48
2018-08-23T00:53:30.782Z,1008.45
2018-08-23T00:54:30.780Z,1008.45
2018-08-23T00:55:30.779Z,1008.50
2018-08-23T00:56:45.413Z,1008.46
2018-08-23T00:57:30.774Z,1008.48
2018-08-23T00:58:30.775Z,1008.47
2018-08-23T00:59:30.773Z,1008.46
2018-08-23T01:00:30.775Z,1008.42
2018-08-23T01:01:30.771Z,1008.42
2018-08-23T01:02:30.767Z,1008.39
2018-08-23T01:03:30.767Z,1008.37
2018-08-23T01:04:30.766Z,1008.37
2018-08-23T01:05:30.760Z,1008.36
2018-08-23T01:06:30.765Z,1008.33
2018-08-23T01:07:30.761Z,1008.35
2018-08-23T01:08:30.760Z,1008.34
2018-08-23T01:09:30.765Z,1008.35
2018-08-23T01:10:30.755Z,1008.33
2018-08-23T01:11:30.749Z,1008.33
2018-08-23T01:12:30.755Z,1008.30
2018-08-23T01:13:30.759Z,1008.32
2018-08-23T01:14:30.742Z,1008.33
2018-08-23T01:15:30.745Z,1008.32
2018-08-23T01:16:30.745Z,1008.28
2018-08-23T01:17:30.743Z,1008.29
2018-08-23T01:18:30.738Z,1008.28
2018-08-23T01:19:30.740Z,1008.27
2018-08-23T01:20:30.735Z,1008.25
2018-08-23T01:21:31.400Z,1008.25
2018-08-23T01:22:30.737Z,1008.27
2018-08-23T01:23:30.732Z,1008.26
2018-08-23T01:24:30.730Z,1008.22
2018-08-23T01:25:30.728Z,1008.24
2018-08-23T01:26:30.722Z,1008.25
2018-08-23T01:27:30.718Z,1008.27
2018-08-23T01:28:30.725Z,1008.27
2018-08-23T01:29:30.717Z,1008.24
2018-08-23T01:30:30.717Z,1008.23
2018-08-23T01:31:30.713Z,1008.23
2018-08-23T01:32:30.712Z,1008.25
2018-08-23T01:33:30.714Z,1008.24
2018-08-23T01:34:30.708Z,1008.24
2018-08-23T01:35:30.707Z,1008.21
2018-08-23T01:36:30.704Z,1008.23
2018-08-23T01:37:30.707Z,1008.25
2018-08-23T01:38:30.704Z,1008.24
2018-08-23T01:39:30.698Z,1008.19
2018-08-23T01:40:30.697Z,1008.19
2018-08-23T01:41:30.696Z,1008.20
2018-08-23T01:42:30.692Z,1008.17
2018-08-23T01:43:30.687Z,1008.19
2018-08-23T01:44:30.689Z,1008.18
2018-08-23T01:45:30.688Z,1008.16
2018-08-23T01:46:30.684Z,1008.17
2018-08-23T01:47:30.684Z,1008.14
2018-08-23T01:48:30.689Z,1008.15
2018-08-23T01:49:30.681Z,1008.18
2018-08-23T01:50:30.677Z,1008.14
2018-08-23T01:51:30.672Z,1008.11
2018-08-23T01:52:30.670Z,1008.15
2018-08-23T01:53:30.685Z,1008.13
2018-08-23T01:54:30.666Z,1008.11
2018-08-23T01:55:30.668Z,1008.14
2018-08-23T01:56:30.673Z,1008.14
2018-08-23T01:57:30.663Z,1008.12
2018-08-23T01:58:30.657Z,1008.13
2018-08-23T01:59:30.661Z,1008.07
2018-08-23T02:00:30.654Z,1008.07
2018-08-23T02:01:30.655Z,1008.04
2018-08-23T02:02:30.657Z,1008.06
2018-08-23T02:03:30.646Z,1008.02
2018-08-23T02:04:30.645Z,1008.03
2018-08-23T02:05:30.648Z,1008.04
2018-08-23T02:06:30.640Z,1008.00
2018-08-23T02:07:30.638Z,1008.01
2018-08-23T02:08:30.638Z,1008.00
2018-08-23T02:09:30.638Z,1007.97
2018-08-23T02:10:30.640Z,1007.96
2018-08-23T02:11:30.634Z,1007.97
2018-08-23T02:12:30.629Z,1007.96
2018-08-23T02:13:30.633Z,1007.94
2018-08-23T02:14:30.620Z,1007.94
2018-08-23T02:15:30.628Z,1007.95
2018-08-23T02:16:30.622Z,1007.91
2018-08-23T02:17:30.616Z,1007.92
2018-08-23T02:18:30.618Z,1007.90
2018-08-23T02:19:30.614Z,1007.91
2018-08-23T02:20:30.623Z,1007.89
2018-08-23T02:21:30.612Z,1007.91
2018-08-23T02:22:30.608Z,1007.88
2018-08-23T02:23:30.608Z,1007.87
2018-08-23T02:24:30.609Z,1007.90
2018-08-23T02:25:30.600Z,1007.88
2018-08-23T02:26:30.601Z,1007.86
2018-08-23T02:27:30.594Z,1007.80
2018-08-23T02:28:30.594Z,1007.82
2018-08-23T02:29:30.596Z,1007.80
2018-08-23T02:30:30.590Z,1007.76
2018-08-23T02:31:30.589Z,1007.78
2018-08-23T02:32:30.590Z,1007.80
2018-08-23T02:33:30.584Z,1007.81
2018-08-23T02:34:30.587Z,1007.82
2018-08-23T02:35:30.580Z,1007.80
2018-08-23T02:36:30.574Z,1007.79
2018-08-23T02:37:30.574Z,1007.77
2018-08-23T02:38:30.575Z,1007.82
2018-08-23T02:39:30.571Z,1007.80
2018-08-23T02:40:30.568Z,1007.79
2018-08-23T02:41:30.570Z,1007.79
2018-08-23T02:42:30.564Z,1007.75
2018-08-23T02:43:30.563Z,1007.70
2018-08-23T02:44:30.570Z,1007.71
2018-08-23T02:45:30.560Z,1007.69
2018-08-23T02:46:30.556Z,1007.69
2018-08-23T02:47:30.559Z,1007.73
2018-08-23T02:48:30.552Z,1007.68
2018-08-23T02:49:30.551Z,1007.65
2018-08-23T02:50:30.545Z,1007.64
2018-08-23T02:51:30.541Z,1007.65
2018-08-23T02:52:30.546Z,1007.68
2018-08-23T02:53:30.541Z,1007.68
2018-08-23T02:54:30.541Z,1007.69
2018-08-23T02:55:30.545Z,1007.69
2018-08-23T02:56:30.535Z,1007.66
2018-08-23T02:57:30.529Z,1007.68
2018-08-23T02:58:30.531Z,1007.64
2018-08-23T02:59:30.525Z,1007.63
2018-08-23T03:00:30.534Z,1007.62
2018-08-23T03:01:30.525Z,1007.61
2018-08-23T03:02:30.517Z,1007.61
2018-08-23T03:03:30.517Z,1007.57
2018-08-23T03:04:30.522Z,1007.60
2018-08-23T03:05:30.513Z,1007.60
2018-08-23T03:06:30.559Z,1007.59
2018-08-23T03:07:30.505Z,1007.58
2018-08-23T03:08:30.502Z,1007.56
2018-08-23T03:09:30.506Z,1007.53
2018-08-23T03:10:30.502Z,1007.55
2018-08-23T03:11:30.510Z,1007.50
2018-08-23T03:12:30.495Z,1007.51
2018-08-23T03:13:30.497Z,1007.50
2018-08-23T03:14:30.494Z,1007.49
2018-08-23T03:15:30.491Z,1007.49
2018-08-23T03:16:30.486Z,1007.49
2018-08-23T03:17:30.496Z,1007.46
2018-08-23T03:18:30.485Z,1007.46
2018-08-23T03:19:30.481Z,1007.43
2018-08-23T03:20:30.484Z,1007.39
2018-08-23T03:21:30.488Z,1007.38
2018-08-23T03:22:30.473Z,1007.38
2018-08-23T03:23:30.470Z,1007.37
2018-08-23T03:24:30.471Z,1007.38
2018-08-23T03:25:30.467Z,1007.37
2018-08-23T03:26:30.465Z,1007.39
2018-08-23T03:27:30.463Z,1007.40
2018-08-23T03:28:30.464Z,1007.41
2018-08-23T03:29:30.459Z,1007.38
2018-08-23T03:30:30.458Z,1007.40
2018-08-23T03:31:30.451Z,1007.37
2018-08-23T03:32:30.449Z,1007.38
2018-08-23T03:33:30.450Z,1007.36
2018-08-23T03:34:30.445Z,1007.38
2018-08-23T03:35:30.444Z,1007.38
2018-08-23T03:36:30.444Z,1007.42
2018-08-23T03:37:30.441Z,1007.45
2018-08-23T03:38:30.432Z,1007.43
2018-08-23T03:39:30.435Z,1007.42
2018-08-23T03:40:30.433Z,1007.42
2018-08-23T03:41:30.429Z,1007.43
2018-08-23T03:42:30.436Z,1007.45
2018-08-23T03:43:30.431Z,1007.42
2018-08-23T03:44:30.418Z,1007.41
2018-08-23T03:45:30.421Z,1007.40
2018-08-23T03:46:30.413Z,1007.42
2018-08-23T03:47:30.411Z,1007.42
2018-08-23T03:48:30.411Z,1007.43
2018-08-23T03:49:30.418Z,1007.43
2018-08-23T03:50:30.407Z,1007.44
2018-08-23T03:51:30.406Z,1007.41
2018-08-23T03:52:30.448Z,1007.41
2018-08-23T03:53:30.401Z,1007.41
2018-08-23T03:54:30.393Z,1007.39
2018-08-23T03:55:30.396Z,1007.39
2018-08-23T03:56:30.397Z,1007.39
2018-08-23T03:57:30.395Z,1007.43
2018-08-23T03:58:30.388Z,1007.41
2018-08-23T03:59:30.382Z,1007.40
2018-08-23T04:00:30.377Z,1007.38
2018-08-23T04:01:30.381Z,1007.39
2018-08-23T04:02:30.371Z,1007.37
2018-08-23T04:03:30.372Z,1007.34
2018-08-23T04:04:30.371Z,1007.37
2018-08-23T04:05:30.368Z,1007.35
2018-08-23T04:06:30.366Z,1007.34
2018-08-23T04:07:30.364Z,1007.31
2018-08-23T04:08:30.362Z,1007.34
2018-08-23T04:09:30.358Z,1007.32
2018-08-23T04:10:30.356Z,1007.31
2018-08-23T04:11:30.358Z,1007.32
2018-08-23T04:12:30.353Z,1007.31
2018-08-23T04:13:30.349Z,1007.26
2018-08-23T04:14:30.339Z,1007.27
2018-08-23T04:15:30.448Z,1007.27
2018-08-23T04:16:30.342Z,1007.28
2018-08-23T04:17:30.346Z,1007.24
2018-08-23T04:18:30.336Z,1007.31
2018-08-23T04:19:30.340Z,1007.32
2018-08-23T04:20:30.326Z,1007.26
2018-08-23T04:21:30.324Z,1007.30
2018-08-23T04:22:30.335Z,1007.33
2018-08-23T04:23:30.327Z,1007.33
2018-08-23T04:24:30.317Z,1007.30
2018-08-23T04:25:30.313Z,1007.32
2018-08-23T04:26:30.313Z,1007.29
2018-08-23T04:27:30.310Z,1007.31
2018-08-23T04:28:30.312Z,1007.29
2018-08-23T04:29:30.312Z,1007.28
2018-08-23T04:30:30.305Z,1007.29
2018-08-23T04:31:30.295Z,1007.30
2018-08-23T04:32:30.299Z,1007.30
2018-08-23T04:33:30.293Z,1007.30
2018-08-23T04:34:30.292Z,1007.26
2018-08-23T04:35:30.290Z,1007.30
2018-08-23T04:36:30.285Z,1007.26
2018-08-23T04:37:30.288Z,1007.25
2018-08-23T04:38:30.277Z,1007.25
2018-08-23T04:39:30.277Z,1007.27
2018-08-23T04:40:30.293Z,1007.23
2018-08-23T04:41:30.274Z,1007.26
2018-08-23T04:42:30.269Z,1007.24
2018-08-23T04:43:30.263Z,1007.24
2018-08-23T04:44:30.265Z,1007.24
2018-08-23T04:45:30.268Z,1007.22
2018-08-23T04:46:30.257Z,1007.23
2018-08-23T04:47:30.259Z,1007.23
2018-08-23T04:48:30.254Z,1007.21
2018-08-23T04:49:30.251Z,1007.19
2018-08-23T04:50:30.251Z,1007.23
2018-08-23T04:51:30.248Z,1007.25
2018-08-23T04:52:30.244Z,1007.20
2018-08-23T04:53:30.249Z,1007.19
2018-08-23T04:54:30.237Z,1007.18
2018-08-23T04:55:30.262Z,1007.19
2018-08-23T04:56:30.239Z,1007.19
2018-08-23T04:57:30.233Z,1007.18
2018-08-23T04:58:30.227Z,1007.17
2018-08-23T04:59:30.227Z,1007.16
2018-08-23T05:00:30.222Z,1007.15
2018-08-23T05:01:30.223Z,1007.14
2018-08-23T05:02:30.229Z,1007.11
2018-08-23T05:03:30.217Z,1007.09
2018-08-23T05:04:30.213Z,1007.10
2018-08-23T05:05:30.207Z,1007.07
2018-08-23T05:06:30.204Z,1007.07
2018-08-23T05:07:30.208Z,1007.09
2018-08-23T05:08:30.200Z,1007.08
2018-08-23T05:09:30.201Z,1007.09
2018-08-23T05:10:30.202Z,1007.08
2018-08-23T05:11:30.192Z,1007.07
2018-08-23T05:12:30.187Z,1007.06
2018-08-23T05:13:30.187Z,1007.10
2018-08-23T05:14:30.184Z,1007.07
2018-08-23T05:15:30.182Z,1007.06
2018-08-23T05:16:30.183Z,1007.06
2018-08-23T05:17:30.178Z,1007.05
2018-08-23T05:18:30.182Z,1007.08
2018-08-23T05:19:30.171Z,1007.08
2018-08-23T05:20:30.171Z,1007.12
2018-08-23T05:21:30.173Z,1007.12
2018-08-23T05:22:30.164Z,1007.13
2018-08-23T05:23:30.164Z,1007.16
2018-08-23T05:24:31.047Z,1007.16
2018-08-23T05:25:30.164Z,1007.13
2018-08-23T05:26:30.157Z,1007.14
2018-08-23T05:27:30.172Z,1007.10
2018-08-23T05:28:30.151Z,1007.15
2018-08-23T05:29:30.150Z,1007.09
2018-08-23T05:30:30.148Z,1007.07
2018-08-23T05:31:30.146Z,1007.09
2018-08-23T05:32:30.141Z,1007.02
2018-08-23T05:33:30.143Z,1007.08
2018-08-23T05:34:30.138Z,1007.05
2018-08-23T05:35:30.141Z,1007.09
2018-08-23T05:36:30.132Z,1007.06
2018-08-23T05:37:30.153Z,1007.09
2018-08-23T05:38:30.128Z,1007.00
2018-08-23T05:39:30.129Z,1007.03
2018-08-23T05:40:30.133Z,1007.03
2018-08-23T05:41:30.120Z,1007.05
2018-08-23T05:42:30.119Z,1007.01
2018-08-23T05:43:30.121Z,1006.95
2018-08-23T05:44:30.113Z,1006.97
2018-08-23T05:45:30.109Z,1006.99
2018-08-23T05:46:30.113Z,1006.96
2018-08-23T05:47:30.119Z,1007.01
2018-08-23T05:48:30.113Z,1007.03
2018-08-23T05:49:30.101Z,1006.98
2018-08-23T05:50:30.100Z,1007.00
2018-08-23T05:51:30.100Z,1007.02
2018-08-23T05:52:30.097Z,1007.03
2018-08-23T05:53:30.094Z,1007.00
2018-08-23T05:54:30.102Z,1006.94
2018-08-23T05:55:30.095Z,1006.96
2018-08-23T05:56:30.086Z,1006.97
2018-08-23T05:57:30.084Z,1006.99
2018-08-23T05:58:30.083Z,1007.06
2018-08-23T05:59:30.085Z,1007.02
2018-08-23T06:00:30.082Z,1007.05
2018-08-23T06:01:30.083Z,1007.03
2018-08-23T06:02:30.077Z,1007.00
2018-08-23T06:03:30.076Z,1006.99
2018-08-23T06:04:30.072Z,1006.97
2018-08-23T06:05:30.073Z,1006.95
2018-08-23T06:06:30.066Z,1006.97
2018-08-23T06:07:30.070Z,1006.94
2018-08-23T06:08:30.072Z,1006.95
2018-08-23T06:09:30.067Z,1006.98
2018-08-23T06:10:30.063Z,1006.94
2018-08-23T06:11:30.062Z,1006.97
2018-08-23T06:12:30.058Z,1007.01
2018-08-23T06:13:30.058Z,1006.98
2018-08-23T06:14:30.057Z,1007.01
2018-08-23T06:15:30.054Z,1007.02
2018-08-23T06:16:30.052Z,1006.99
2018-08-23T06:17:30.048Z,1007.02
2018-08-23T06:18:30.047Z,1007.06
2018-08-23T06:19:30.046Z,1007.04
2018-08-23T06:20:30.045Z,1007.08
2018-08-23T06:21:30.047Z,1007.06
2018-08-23T06:22:30.044Z,1007.08
2018-08-23T06:23:30.037Z,1007.08
2018-08-23T06:24:30.044Z,1007.09
2018-08-23T06:25:30.046Z,1007.05
2018-08-23T06:26:30.032Z,1007.04
2018-08-23T06:27:30.128Z,1007.02
2018-08-23T06:28:30.047Z,1007.03
2018-08-23T06:29:30.032Z,1007.02
2018-08-23T06:30:30.030Z,1007.06
2018-08-23T06:31:30.029Z,1007.08
2018-08-23T06:32:30.031Z,1007.09
2018-08-23T06:33:30.193Z,1007.08
2018-08-23T06:34:30.128Z,1007.08
2018-08-23T06:35:30.080Z,1007.08
2018-08-23T06:36:30.023Z,1007.09
2018-08-23T06:37:30.026Z,1007.05
2018-08-23T06:38:30.033Z,1007.07
2018-08-23T06:39:30.037Z,1007.07
2018-08-23T06:40:30.013Z,1007.07
2018-08-23T06:41:30.017Z,1007.09
2018-08-23T06:42:30.016Z,1007.12
2018-08-23T06:43:30.014Z,1007.10
2018-08-23T06:44:30.031Z,1007.09
2018-08-23T06:45:30.017Z,1007.10
2018-08-23T06:46:30.014Z,1007.07
2018-08-23T06:47:30.009Z,1007.07
2018-08-23T06:48:30.004Z,1007.07
2018-08-23T06:49:30.023Z,1007.07
2018-08-23T06:50:30.006Z,1007.06
2018-08-23T06:51:30.002Z,1007.09
2018-08-23T06:52:30.004Z,1007.09
2018-08-23T06:53:30.004Z,1007.14
2018-08-23T06:54:29.996Z,1007.09
2018-08-23T06:55:30.003Z,1007.08
2018-08-23T06:56:30.018Z,1007.09
2018-08-23T06:57:29.997Z,1007.10
2018-08-23T06:58:30.000Z,1007.09
2018-08-23T06:59:29.996Z,1007.12
2018-08-23T07:00:30.002Z,1007.09
2018-08-23T07:01:30.021Z,1007.07
2018-08-23T07:02:29.995Z,1007.10
2018-08-23T07:03:29.991Z,1007.12
2018-08-23T07:04:29.990Z,1007.10
2018-08-23T07:05:30.045Z,1007.09
2018-08-23T07:06:29.998Z,1007.14
2018-08-23T07:07:30.617Z,1007.15
2018-08-23T07:08:29.984Z,1007.10
2018-08-23T07:09:29.982Z,1007.12
2018-08-23T07:10:30.008Z,1007.10
2018-08-23T07:11:29.989Z,1007.09
2018-08-23T07:12:29.982Z,1007.10
2018-08-23T07:13:29.979Z,1007.11
2018-08-23T07:14:29.976Z,1007.03
2018-08-23T07:15:29.974Z,1007.13
2018-08-23T07:16:29.975Z,1007.10
2018-08-23T07:17:30.049Z,1007.11
2018-08-23T07:18:29.991Z,1007.12
2018-08-23T07:19:29.974Z,1007.15
2018-08-23T07:20:29.976Z,1007.12
2018-08-23T07:21:29.970Z,1007.16
2018-08-23T07:22:30.009Z,1007.14
2018-08-23T07:23:29.967Z,1007.13
2018-08-23T07:24:29.968Z,1007.12
2018-08-23T07:25:29.966Z,1007.12
2018-08-23T07:26:29.968Z,1007.09
2018-08-23T07:27:29.968Z,1007.10
2018-08-23T07:28:29.963Z,1007.10
2018-08-23T07:29:29.978Z,1007.11
2018-08-23T07:30:29.959Z,1007.08
2018-08-23T07:31:29.967Z,1007.08
2018-08-23T07:32:29.989Z,1007.06
2018-08-23T07:33:29.963Z,1007.07
2018-08-23T07:34:29.959Z,1007.04
2018-08-23T07:35:29.956Z,1007.05
2018-08-23T07:36:29.955Z,1007.00
2018-08-23T07:37:29.961Z,1007.05
2018-08-23T07:38:29.955Z,1007.03
2018-08-23T07:39:29.959Z,1006.97
2018-08-23T07:40:29.963Z,1007.03
2018-08-23T07:41:29.956Z,1006.99
2018-08-23T07:42:29.953Z,1006.97
2018-08-23T07:43:29.949Z,1006.98
2018-08-23T07:44:29.955Z,1007.00
2018-08-23T07:45:29.950Z,1006.99
2018-08-23T07:46:29.993Z,1006.97
2018-08-23T07:47:29.947Z,1006.95
2018-08-23T07:48:29.968Z,1006.97
2018-08-23T07:49:29.952Z,1006.95
2018-08-23T07:50:29.953Z,1007.01
2018-08-23T07:51:29.951Z,1006.95
2018-08-23T07:52:29.970Z,1006.95
2018-08-23T07:53:30.103Z,1006.97
2018-08-23T07:54:29.953Z,1006.94
2018-08-23T07:55:29.951Z,1006.97
2018-08-23T07:56:29.952Z,1006.93
2018-08-23T07:57:29.956Z,1006.93
2018-08-23T07:58:29.964Z,1006.91
2018-08-23T07:59:29.952Z,1006.90
2018-08-23T08:00:29.953Z,1007.00
2018-08-23T08:01:29.961Z,1006.97
2018-08-23T08:02:29.965Z,1006.97
2018-08-23T08:03:29.993Z,1006.98
2018-08-23T08:04:29.961Z,1006.96
2018-08-23T08:05:29.960Z,1006.93
2018-08-23T08:06:29.967Z,1006.94
2018-08-23T08:07:29.968Z,1006.98
2018-08-23T08:08:29.998Z,1006.97
2018-08-23T08:09:29.997Z,1007.03
2018-08-23T08:10:29.968Z,1007.01
2018-08-23T08:11:29.971Z,1006.99
2018-08-23T08:12:29.969Z,1007.00
2018-08-23T08:13:29.981Z,1007.03
2018-08-23T08:14:29.972Z,1007.03
2018-08-23T08:15:29.975Z,1006.99
2018-08-23T08:16:29.979Z,1006.97
2018-08-23T08:17:29.983Z,1007.00
2018-08-23T08:18:29.978Z,1006.98
2018-08-23T08:19:29.984Z,1007.04
2018-08-23T08:20:29.985Z,1006.99
2018-08-23T08:21:30.042Z,1006.97
2018-08-23T08:22:29.986Z,1006.98
2018-08-23T08:23:29.992Z,1007.00
2018-08-23T08:24:29.992Z,1006.98
2018-08-23T08:25:29.999Z,1006.93
2018-08-23T08:26:29.997Z,1006.94
2018-08-23T08:27:30.002Z,1006.88
2018-08-23T08:28:30.010Z,1006.93
2018-08-23T08:29:30.012Z,1006.94
2018-08-23T08:30:30.015Z,1006.90
2018-08-23T08:31:30.020Z,1006.93
2018-08-23T08:32:30.018Z,1006.89
2018-08-23T08:33:30.023Z,1006.89
2018-08-23T08:34:30.027Z,1006.90
2018-08-23T08:35:30.035Z,1006.90
2018-08-23T08:36:30.038Z,1006.98
2018-08-23T08:37:30.039Z,1006.92
2018-08-23T08:38:30.042Z,1006.95
2018-08-23T08:39:30.049Z,1006.92
2018-08-23T08:40:30.049Z,1006.88
2018-08-23T08:41:30.052Z,1006.93
2018-08-23T08:42:30.069Z,1006.82
2018-08-23T08:43:30.067Z,1006.90
2018-08-23T08:44:30.072Z,1006.80
2018-08-23T08:45:30.075Z,1006.83
2018-08-23T08:46:30.079Z,1006.86
2018-08-23T08:47:30.087Z,1006.82
2018-08-23T08:48:30.088Z,1006.85
2018-08-23T08:49:30.097Z,1006.82
2018-08-23T08:50:30.143Z,1006.85
2018-08-23T08:51:30.104Z,1006.82
2018-08-23T08:52:30.113Z,1006.83
2018-08-23T08:53:30.120Z,1006.89
2018-08-23T08:54:30.118Z,1006.90
2018-08-23T08:55:30.136Z,1006.77
2018-08-23T08:56:30.142Z,1006.83
2018-08-23T08:57:30.156Z,1006.80
2018-08-23T08:58:30.158Z,1006.78
2018-08-23T08:59:30.152Z,1006.75
2018-08-23T09:00:30.157Z,1006.77
2018-08-23T09:01:30.188Z,1006.71
2018-08-23T09:02:30.181Z,1006.75
2018-08-23T09:03:30.175Z,1006.67
2018-08-23T09:04:30.181Z,1006.72
2018-08-23T09:05:30.210Z,1006.73
2018-08-23T09:06:30.194Z,1006.67
2018-08-23T09:07:30.200Z,1006.67
2018-08-23T09:08:30.206Z,1006.65
2018-08-23T09:09:30.217Z,1006.73
2018-08-23T09:10:30.216Z,1006.63
2018-08-23T09:11:30.245Z,1006.63
2018-08-23T09:12:30.236Z,1006.60
2018-08-23T09:13:30.238Z,1006.54
2018-08-23T09:14:30.245Z,1006.52
2018-08-23T09:15:30.272Z,1006.53
2018-08-23T09:16:30.263Z,1006.60
2018-08-23T09:17:30.275Z,1006.57
2018-08-23T09:18:30.275Z,1006.46
2018-08-23T09:19:30.283Z,1006.54
2018-08-23T09:20:30.327Z,1006.49
2018-08-23T09:21:30.292Z,1006.49
2018-08-23T09:22:30.311Z,1006.55
2018-08-23T09:23:30.310Z,1006.50
2018-08-23T09:24:30.314Z,1006.54
2018-08-23T09:25:30.319Z,1006.53
2018-08-23T09:26:30.328Z,1006.58
2018-08-23T09:27:30.333Z,1006.55
2018-08-23T09:28:30.339Z,1006.54
2018-08-23T09:29:30.359Z,1006.61
2018-08-23T09:30:30.354Z,1006.58
2018-08-23T09:31:30.362Z,1006.49
2018-08-23T09:32:30.367Z,1006.50
2018-08-23T09:33:30.374Z,1006.51
2018-08-23T09:34:30.379Z,1006.58
2018-08-23T09:35:30.390Z,1006.52
2018-08-23T09:36:30.396Z,1006.57
2018-08-23T09:37:30.409Z,1006.53
2018-08-23T09:38:30.409Z,1006.49
2018-08-23T09:39:30.420Z,1006.48
2018-08-23T09:40:30.431Z,1006.45
2018-08-23T09:41:30.437Z,1006.45
2018-08-23T09:42:30.439Z,1006.45
2018-08-23T09:43:30.447Z,1006.45
2018-08-23T09:44:30.460Z,1006.44
2018-08-23T09:45:30.464Z,1006.44
2018-08-23T09:46:30.471Z,1006.43
2018-08-23T09:47:30.480Z,1006.40
2018-08-23T09:48:30.489Z,1006.41
2018-08-23T09:49:30.497Z,1006.42
2018-08-23T09:50:30.504Z,1006.40
2018-08-23T09:51:30.509Z,1006.37
2018-08-23T09:52:30.518Z,1006.33
2018-08-23T09:53:30.522Z,1006.32
2018-08-23T09:54:30.530Z,1006.32
2018-08-23T09:55:30.539Z,1006.25
2018-08-23T09:56:30.605Z,1006.26
2018-08-23T09:57:30.562Z,1006.23
2018-08-23T09:58:30.559Z,1006.31
2018-08-23T09:59:30.569Z,1006.29
2018-08-23T10:00:30.575Z,1006.27
2018-08-23T10:01:30.581Z,1006.25
2018-08-23T10:02:30.589Z,1006.30
2018-08-23T10:03:30.596Z,1006.25
2018-08-23T10:04:30.606Z,1006.34
2018-08-23T10:05:30.612Z,1006.30
2018-08-23T10:06:30.615Z,1006.28
2018-08-23T10:07:30.622Z,1006.28
2018-08-23T10:08:30.630Z,1006.29
2018-08-23T10:09:30.640Z,1006.23
2018-08-23T10:10:30.644Z,1006.22
2018-08-23T10:11:30.733Z,1006.30
2018-08-23T10:12:30.653Z,1006.23
2018-08-23T10:13:30.662Z,1006.16
2018-08-23T10:14:30.667Z,1006.21
2018-08-23T10:15:30.676Z,1006.22
2018-08-23T10:16:30.678Z,1006.20
2018-08-23T10:17:30.694Z,1006.23
2018-08-23T10:18:30.688Z,1006.19
2018-08-23T10:19:30.691Z,1006.20
2018-08-23T10:20:30.697Z,1006.21
2018-08-23T10:21:30.709Z,1006.13
2018-08-23T10:22:30.711Z,1006.15
2018-08-23T10:23:30.721Z,1006.12
2018-08-23T10:24:30.720Z,1006.16
2018-08-23T10:25:30.738Z,1006.10
2018-08-23T10:26:30.791Z,1006.11
2018-08-23T10:27:30.740Z,1006.07
2018-08-23T10:28:30.750Z,1006.12
2018-08-23T10:29:30.760Z,1006.07
2018-08-23T10:30:30.758Z,1006.12
2018-08-23T10:31:30.765Z,1006.15
2018-08-23T10:32:30.772Z,1006.02
2018-08-23T10:33:30.791Z,1006.08
2018-08-23T10:34:30.785Z,1006.08
2018-08-23T10:35:30.786Z,1006.18
2018-08-23T10:36:30.802Z,1006.00
2018-08-23T10:37:30.810Z,1006.05
2018-08-23T10:38:30.825Z,1006.03
2018-08-23T10:39:30.809Z,1006.00
2018-08-23T10:40:30.824Z,1006.05
2018-08-23T10:41:30.822Z,1005.92
2018-08-23T10:42:30.835Z,1005.96
2018-08-23T10:43:30.838Z,1005.92
2018-08-23T10:44:30.909Z,1006.00
2018-08-23T10:45:30.855Z,1005.95
2018-08-23T10:46:30.855Z,1005.97
2018-08-23T10:47:30.862Z,1005.96
2018-08-23T10:48:30.868Z,1005.95
2018-08-23T10:49:30.876Z,1005.97
2018-08-23T10:50:30.926Z,1005.98
2018-08-23T10:51:30.894Z,1005.95
2018-08-23T10:52:30.896Z,1005.92
2018-08-23T10:53:30.918Z,1005.94
2018-08-23T10:54:30.908Z,1005.91
2018-08-23T10:55:30.913Z,1005.93
2018-08-23T10:56:30.936Z,1006.00
2018-08-23T10:57:30.923Z,1005.93
2018-08-23T10:58:30.932Z,1005.98
2018-08-23T10:59:30.940Z,1005.94
2018-08-23T11:00:30.941Z,1005.94
2018-08-23T11:01:30.946Z,1005.94
2018-08-23T11:02:30.953Z,1006.02
2018-08-23T11:03:30.960Z,1005.98
2018-08-23T11:04:30.968Z,1005.91
2018-08-23T11:05:30.970Z,1005.91
2018-08-23T11:06:30.976Z,1005.96
2018-08-23T11:07:30.977Z,1005.99
2018-08-23T11:08:30.986Z,1005.90
2018-08-23T11:09:30.993Z,1005.94
2018-08-23T11:10:30.998Z,1005.91
2018-08-23T11:11:31.002Z,1005.88
2018-08-23T11:12:31.008Z,1005.88
2018-08-23T11:13:31.017Z,1005.87
2018-08-23T11:14:31.020Z,1005.85
2018-08-23T11:15:31.027Z,1005.90
2018-08-23T11:16:31.032Z,1005.81
2018-08-23T11:17:31.036Z,1005.78
2018-08-23T11:18:31.045Z,1005.79
2018-08-23T11:19:31.047Z,1005.76
2018-08-23T11:20:31.055Z,1005.87
2018-08-23T11:21:31.058Z,1005.86
2018-08-23T11:22:31.063Z,1005.83
2018-08-23T11:23:31.062Z,1005.81
2018-08-23T11:24:31.072Z,1005.82
2018-08-23T11:25:31.078Z,1005.82
2018-08-23T11:26:31.086Z,1005.77
2018-08-23T11:27:31.090Z,1005.85
2018-08-23T11:28:31.104Z,1005.83
2018-08-23T11:29:31.144Z,1005.76
2018-08-23T11:30:31.102Z,1005.77
2018-08-23T11:31:31.108Z,1005.75
2018-08-23T11:32:31.118Z,1005.77
2018-08-23T11:33:31.128Z,1005.67
2018-08-23T11:34:31.136Z,1005.74
2018-08-23T11:35:31.151Z,1005.68
2018-08-23T11:36:31.145Z,1005.74
2018-08-23T11:37:31.143Z,1005.76
2018-08-23T11:38:31.152Z,1005.78
2018-08-23T11:39:31.154Z,1005.79
2018-08-23T11:40:31.163Z,1005.72
2018-08-23T11:41:31.174Z,1005.74
2018-08-23T11:42:31.172Z,1005.77
2018-08-23T11:43:31.181Z,1005.69
2018-08-23T11:44:31.183Z,1005.72
2018-08-23T11:45:31.189Z,1005.82
2018-08-23T11:46:31.195Z,1005.80
2018-08-23T11:47:31.202Z,1005.67
2018-08-23T11:48:31.216Z,1005.65
2018-08-23T11:49:31.215Z,1005.63
2018-08-23T11:50:31.224Z,1005.66
2018-08-23T11:51:31.228Z,1005.63
2018-08-23T11:52:31.234Z,1005.57
2018-08-23T11:53:31.371Z,1005.53
2018-08-23T11:54:31.244Z,1005.58
2018-08-23T11:55:31.252Z,1005.65
2018-08-23T11:56:31.255Z,1005.59
2018-08-23T11:57:31.263Z,1005.63
2018-08-23T11:58:31.267Z,1005.50
2018-08-23T11:59:31.276Z,1005.59
2018-08-23T12:00:31.281Z,1005.62
2018-08-23T12:01:31.313Z,1005.52
2018-08-23T12:02:31.293Z,1005.48
2018-08-23T12:03:31.302Z,1005.55
2018-08-23T12:04:31.299Z,1005.53
2018-08-23T12:05:31.313Z,1005.56